Time;durP1;ratioP1;P1;durP2;ratioP2;P2;SDS_P1;SDS_P2;PMS_P1;PMS_P2;Temp;Humidity;BMP_temperature;BMP_pressure;BME280_temperature;BME280_humidity;BME280_pressure;Samples;Min_cycle;Max_cycle;Signal;HPM_P1;HPM_P2
2021/05/17 00:03:30;;;;;;;2.97;1.98;;;;;;;24.29;44.98;94271.00;5008057;23;20058;-70
2021/05/17 00:05:56;;;;;;;2.20;1.73;;;;;;;24.50;44.98;94301.75;4972476;28;20505;-70
2021/05/17 00:08:21;;;;;;;2.38;1.88;;;;;;;24.42;45.18;94290.03;4990843;28;20056;-70
2021/05/17 00:10:47;;;;;;;2.97;1.98;;;;;;;24.49;44.60;94300.28;4990247;28;20030;-70
2021/05/17 00:13:12;;;;;;;3.25;1.98;;;;;;;24.45;45.47;94286.25;4990189;28;20793;-70
2021/05/17 00:15:38;;;;;;;2.75;1.95;;;;;;;24.47;44.80;94297.38;4990485;28;20077;-70
2021/05/17 00:18:04;;;;;;;2.45;1.70;;;;;;;24.20;45.06;94252.34;4990128;28;20034;-70
2021/05/17 00:20:30;;;;;;;3.88;2.03;;;;;;;24.45;45.40;94316.25;4973094;28;20034;-70
2021/05/17 00:22:56;;;;;;;3.70;2.08;;;;;;;24.46;45.27;94317.72;4972398;28;20037;-70
2021/05/17 00:25:26;;;;;;;2.15;1.75;;;;;;;24.36;45.20;94303.09;4990204;28;20116;-70
2021/05/17 00:27:51;;;;;;;;;;;;;;;24.43;45.23;94302.44;4990229;28;20490;-70
2021/05/17 00:30:18;;;;;;;2.55;1.90;;;;;;;24.45;45.00;94299.88;4990181;28;19936;-70
2021/05/17 00:32:44;;;;;;;3.22;2.08;;;;;;;24.45;45.18;94297.16;4972642;28;20046;-70
2021/05/17 00:35:11;;;;;;;3.53;1.92;;;;;;;24.42;45.52;94290.03;4988762;28;20034;-71
2021/05/17 00:37:36;;;;;;;2.30;2.00;;;;;;;24.42;44.97;94295.50;4988761;28;20030;-70
2021/05/17 00:40:02;;;;;;;2.35;2.15;;;;;;;24.32;45.00;94286.28;4972527;28;20030;-70
2021/05/17 00:42:28;;;;;;;2.58;2.00;;;;;;;24.39;45.61;94296.56;4989675;28;20026;-70
2021/05/17 00:44:53;;;;;;;3.13;2.10;;;;;;;24.40;44.98;94295.31;4972335;28;20022;-70
2021/05/17 00:47:18;;;;;;;3.35;2.08;;;;;;;24.39;45.41;94296.56;4972152;28;20631;-69
2021/05/17 00:49:45;;;;;;;2.72;1.75;;;;;;;24.37;45.68;94293.63;4989540;28;20057;-70
2021/05/17 00:52:11;;;;;;;2.65;1.83;;;;;;;24.20;45.46;94268.72;4972601;28;20183;-70
2021/05/17 00:54:36;;;;;;;2.95;1.88;;;;;;;24.18;45.08;94265.78;4989597;28;20030;-70
2021/05/17 00:57:03;;;;;;;2.83;1.95;;;;;;;24.11;44.77;94255.56;4971778;28;20267;-70
2021/05/17 00:59:29;;;;;;;3.05;2.17;;;;;;;24.31;45.61;94295.75;4989404;28;20112;-70
2021/05/17 01:01:55;;;;;;;2.97;1.92;;;;;;;24.15;45.11;94288.66;4971434;28;20034;-70
2021/05/17 01:04:20;;;;;;;2.35;1.73;;;;;;;24.33;45.94;94304.16;4967821;28;20062;-70
2021/05/17 01:06:46;;;;;;;3.55;2.00;;;;;;;24.31;45.23;94306.66;4970030;28;20026;-70
2021/05/17 01:09:13;;;;;;;2.00;1.77;;;;;;;24.30;45.01;94299.72;4971981;28;20026;-70
2021/05/17 01:11:38;;;;;;;3.00;1.90;;;;;;;24.30;45.15;94310.63;4989472;28;20049;-70
2021/05/17 01:14:05;;;;;;;4.13;2.00;;;;;;;24.25;45.62;94300.59;4989216;28;20026;-70
2021/05/17 01:16:31;;;;;;;2.67;2.17;;;;;;;24.26;45.46;94304.78;4989174;28;20085;-71
2021/05/17 01:18:57;;;;;;;2.72;1.88;;;;;;;23.97;45.54;94270.50;4989086;28;20081;-70
2021/05/17 01:21:24;;;;;;;2.58;2.05;;;;;;;24.00;45.62;94261.25;4971411;28;20501;-70
2021/05/17 01:23:56;;;;;;;2.95;2.00;;;;;;;24.24;45.26;94312.75;4972093;28;20081;-70
2021/05/17 01:26:23;;;;;;;2.30;1.80;;;;;;;24.26;45.20;94309.50;4989084;28;20046;-70
2021/05/17 01:28:49;;;;;;;2.97;1.92;;;;;;;24.26;45.90;94321.16;4989195;28;20022;-70
2021/05/17 01:31:14;;;;;;;3.50;2.13;;;;;;;24.22;45.70;94320.75;4971485;28;20524;-70
2021/05/17 01:33:41;;;;;;;2.65;1.90;;;;;;;24.25;45.38;94319.69;4971713;28;20085;-70
2021/05/17 01:36:08;;;;;;;2.53;2.03;;;;;;;24.23;45.98;94322.22;4987666;28;20034;-70
2021/05/17 01:38:35;;;;;;;2.97;1.88;;;;;;;24.03;45.97;94303.81;4988990;28;20037;-70
2021/05/17 01:41:02;;;;;;;2.55;1.83;;;;;;;24.16;45.44;94311.25;4971429;28;20022;-70
2021/05/17 01:43:27;;;;;;;2.08;1.67;;;;;;;24.20;45.39;94304.19;4988638;28;20030;-71
2021/05/17 01:45:53;;;;;;;5.22;2.40;;;;;;;24.22;45.73;94304.38;4971220;28;20025;-70
2021/05/17 01:48:25;;;;;;;2.70;1.90;;;;;;;24.20;45.57;94296.00;4987897;28;20030;-70
2021/05/17 01:50:50;;;;;;;2.80;1.90;;;;;;;24.21;45.45;94297.47;4971435;28;20073;-70
2021/05/17 01:53:16;;;;;;;2.55;1.90;;;;;;;23.77;45.25;94242.50;4988413;28;20480;-71
2021/05/17 01:55:42;;;;;;;3.10;2.17;;;;;;;24.21;45.56;94297.47;4955269;28;20030;-70
2021/05/17 01:58:09;;;;;;;2.63;1.88;;;;;;;24.12;45.67;94300.63;4955598;28;20112;-71
2021/05/17 02:00:35;;;;;;;3.08;1.92;;;;;;;24.13;45.32;94285.75;4971336;28;20034;-70
2021/05/17 02:03:00;;;;;;;2.63;1.98;;;;;;;24.16;45.26;94294.88;4966569;28;20038;-70
2021/05/17 02:05:26;;;;;;;2.75;2.20;;;;;;;24.18;45.86;94287.59;4970894;28;20030;-70
2021/05/17 02:07:53;;;;;;;2.35;1.90;;;;;;;24.19;45.56;94283.63;4970975;28;20081;-70
2021/05/17 02:10:18;;;;;;;2.28;1.83;;;;;;;24.16;45.69;94279.22;4988725;28;20176;-70
2021/05/17 02:12:43;;;;;;;2.70;1.90;;;;;;;24.14;45.88;94270.84;4989579;28;20556;-70
2021/05/17 02:15:10;;;;;;;3.03;2.13;;;;;;;24.13;45.72;94277.56;4991449;28;20041;-69
2021/05/17 02:17:35;;;;;;;2.95;2.05;;;;;;;24.18;45.46;94275.97;4992543;28;20030;-70
2021/05/17 02:20:01;;;;;;;3.05;1.98;;;;;;;24.18;46.17;94281.44;4992591;28;20509;-70
2021/05/17 02:22:26;;;;;;;2.92;1.90;;;;;;;24.16;46.12;94287.41;4991360;28;20018;-70
2021/05/17 02:24:52;;;;;;;2.95;2.30;;;;;;;24.11;45.60;94288.28;4992401;28;20057;-70
2021/05/17 02:27:18;;;;;;;2.30;2.08;;;;;;;24.15;45.47;94283.22;4992111;28;20022;-70
2021/05/17 02:29:43;;;;;;;3.03;2.10;;;;;;;24.15;45.77;94288.66;4991930;28;20034;-70
2021/05/17 02:32:10;;;;;;;2.35;2.10;;;;;;;24.15;45.75;94282.50;4992502;28;20026;-70
2021/05/17 02:34:35;;;;;;;2.85;2.20;;;;;;;24.13;46.22;94285.75;4992170;28;20029;-70
2021/05/17 02:37:01;;;;;;;2.75;2.28;;;;;;;23.93;46.09;94261.91;4992005;28;20496;-70
2021/05/17 02:39:27;;;;;;;2.67;2.10;;;;;;;24.12;45.96;94284.28;4954371;28;20109;-71
2021/05/17 02:41:54;;;;;;;2.50;2.10;;;;;;;24.13;46.01;94283.03;4991591;28;20033;-71
2021/05/17 02:44:20;;;;;;;2.60;2.00;;;;;;;24.11;45.73;94288.28;4990803;28;20060;-70
2021/05/17 02:46:46;;;;;;;2.72;2.17;;;;;;;24.12;45.63;94278.81;4991413;28;20434;-70
2021/05/17 02:49:12;;;;;;;3.10;2.40;;;;;;;24.07;45.86;94282.41;4992120;28;20545;-70
2021/05/17 02:51:37;;;;;;;2.20;2.00;;;;;;;24.13;45.95;94290.47;4991741;28;20367;-70
2021/05/17 02:54:13;;;;;;;2.45;2.00;;;;;;;24.13;45.79;94302.13;4991271;28;20023;-70
2021/05/17 02:56:57;;;;;;;2.63;2.13;;;;;;;24.11;45.80;94304.66;4974398;28;20040;-71
2021/05/17 02:59:26;;;;;;;2.75;2.15;;;;;;;23.91;45.97;94291.69;4991721;28;20501;-71
2021/05/17 03:01:54;;;;;;;2.67;1.95;;;;;;;24.10;45.80;94303.19;4958363;28;20027;-70
2021/05/17 03:04:20;;;;;;;2.80;2.20;;;;;;;24.10;45.91;94297.00;4983734;28;20051;-70
2021/05/17 03:06:55;;;;;;;2.70;2.10;;;;;;;24.16;45.79;94306.50;4959014;28;20030;-70
2021/05/17 03:09:20;;;;;;;2.75;2.15;;;;;;;23.95;45.98;94292.13;4983759;28;20156;-71
2021/05/17 03:11:47;;;;;;;5.43;2.53;;;;;;;23.99;45.79;94292.53;4978546;28;20030;-71
2021/05/17 03:14:14;;;;;;;2.58;2.10;;;;;;;24.15;45.72;94321.41;4982091;28;20038;-70
2021/05/17 03:16:40;;;;;;;2.97;2.20;;;;;;;24.15;46.16;94321.41;4956581;28;20125;-71
2021/05/17 03:19:06;;;;;;;2.47;1.95;;;;;;;24.19;46.55;94321.81;4957129;28;20086;-69
2021/05/17 03:21:31;;;;;;;2.92;2.10;;;;;;;24.18;46.33;94320.34;4948164;28;20027;-68
2021/05/17 03:23:57;;;;;;;2.75;2.00;;;;;;;24.26;46.34;94331.34;4958178;28;20026;-69
2021/05/17 03:26:23;;;;;;;2.30;1.95;;;;;;;24.27;45.91;94332.81;4964495;28;20025;-69
2021/05/17 03:28:49;;;;;;;2.78;2.30;;;;;;;24.22;46.12;94304.38;4959448;28;20034;-70
2021/05/17 03:31:15;;;;;;;2.20;2.00;;;;;;;24.47;45.88;94319.22;4953704;28;20054;-69
2021/05/17 03:33:40;;;;;;;4.43;2.03;;;;;;;24.57;45.13;94323.66;4978510;28;20450;-69
2021/05/17 03:36:06;;;;;;;2.70;2.10;;;;;;;24.65;45.50;94329.16;4983252;28;20399;-68
2021/05/17 03:38:31;;;;;;;2.80;2.30;;;;;;;24.76;44.84;94340.56;4988287;28;20026;-69
2021/05/17 03:40:57;;;;;;;2.22;1.90;;;;;;;24.85;44.77;94338.06;4988748;28;20085;-69
2021/05/17 03:43:22;;;;;;;3.10;2.08;;;;;;;24.96;44.47;94348.75;4980657;28;20077;-68
2021/05/17 03:45:48;;;;;;;2.78;2.22;;;;;;;25.03;44.70;94342.59;4991529;28;20059;-68
2021/05/17 03:48:13;;;;;;;2.47;1.83;;;;;;;25.13;44.10;94351.78;4992229;28;20033;-69
2021/05/17 03:50:39;;;;;;;2.25;1.88;;;;;;;25.04;43.89;94321.50;4993289;28;20536;-68
2021/05/17 03:53:04;;;;;;;2.58;1.90;;;;;;;25.33;43.88;94343.56;4992424;28;20552;-69
2021/05/17 03:55:30;;;;;;;2.90;2.08;;;;;;;25.44;43.64;94342.50;4985284;28;20033;-69
2021/05/17 03:57:57;;;;;;;2.53;2.08;;;;;;;25.51;42.70;94330.88;4978185;28;20037;-69
2021/05/17 04:00:23;;;;;;;2.63;1.95;;;;;;;25.62;43.33;94341.50;4972708;28;20023;-69
2021/05/17 04:02:49;;;;;;;2.80;1.83;;;;;;;25.50;43.41;94307.53;4983438;28;20540;-69
2021/05/17 04:15:44;;;;;;;4.70;2.20;;;;;;;26.09;42.89;94329.69;4972040;28;20588;-70
2021/05/17 04:18:10;;;;;;;3.45;2.40;;;;;;;26.13;43.19;94335.53;4972825;28;20019;-68
2021/05/17 04:20:36;;;;;;;4.18;2.53;;;;;;;26.20;43.36;94329.31;4971813;28;20042;-69
2021/05/17 04:23:01;;;;;;;4.28;2.58;;;;;;;26.06;43.63;94303.41;4971710;28;20034;-71
2021/05/17 04:25:27;;;;;;;3.97;2.30;;;;;;;26.27;42.77;94333.38;4973251;28;20058;-70
2021/05/17 04:27:52;;;;;;;5.90;2.60;;;;;;;26.34;42.94;94338.91;4973546;28;20593;-71
2021/05/17 04:30:18;;;;;;;3.70;2.47;;;;;;;26.27;42.00;94329.38;4971886;28;20041;-71
2021/05/17 04:32:43;;;;;;;4.95;2.50;;;;;;;26.46;42.55;94323.59;4982183;28;20034;-70
2021/05/17 04:35:09;;;;;;;3.65;2.85;;;;;;;26.53;41.99;94328.31;4988952;28;20065;-70
2021/05/17 04:37:35;;;;;;;3.25;2.60;;;;;;;26.57;41.86;94328.69;4979809;28;20041;-70
2021/05/17 04:40:01;;;;;;;3.40;2.60;;;;;;;26.63;41.37;94332.00;4987404;28;20472;-70
2021/05/17 04:42:26;;;;;;;3.40;2.53;;;;;;;26.70;41.32;94325.81;4982491;28;20073;-70
2021/05/17 04:44:51;;;;;;;3.13;2.40;;;;;;;26.70;41.32;94317.59;4987202;28;20026;-70
2021/05/17 04:47:17;;;;;;;3.88;2.72;;;;;;;26.75;41.45;94317.38;4986135;28;20022;-70
2021/05/17 04:49:42;;;;;;;4.65;2.72;;;;;;;26.78;41.36;94319.03;4980668;28;20037;-69
2021/05/17 04:52:08;;;;;;;3.50;2.70;;;;;;;26.76;41.36;94314.09;4999340;28;20084;-70
2021/05/17 04:54:33;;;;;;;3.80;2.72;;;;;;;26.81;41.24;94306.97;5004647;28;20034;-71
2021/05/17 04:56:59;;;;;;;4.78;2.58;;;;;;;26.86;40.97;94301.31;4992237;28;20022;-71
2021/05/17 04:59:25;;;;;;;3.45;2.50;;;;;;;26.89;41.24;94300.25;4992856;28;20513;-68
2021/05/17 05:01:50;;;;;;;3.88;2.70;;;;;;;26.89;41.29;94294.75;5001668;28;20050;-67
2021/05/17 05:04:16;;;;;;;3.72;3.03;;;;;;;27.11;41.19;94315.91;5003585;28;20042;-67
2021/05/17 05:06:41;;;;;;;4.07;2.88;;;;;;;27.05;40.91;94312.63;5004322;28;20029;-68
2021/05/17 05:09:07;;;;;;;4.25;2.63;;;;;;;27.09;41.51;94318.50;5000896;28;20080;-67
2021/05/17 05:11:32;;;;;;;3.88;2.65;;;;;;;27.02;41.40;94313.00;5002416;28;20032;-70
2021/05/17 05:13:58;;;;;;;4.63;2.95;;;;;;;27.11;40.83;94324.16;5000153;28;20026;-70
2021/05/17 05:16:23;;;;;;;4.07;2.70;;;;;;;27.16;41.00;94322.50;5002078;28;20083;-70
2021/05/17 05:18:48;;;;;;;3.03;2.35;;;;;;;27.12;41.12;94306.41;4995859;28;20029;-72
2021/05/17 05:21:14;;;;;;;3.92;2.47;;;;;;;27.23;41.10;94317.00;4978700;28;20406;-71
2021/05/17 05:23:40;;;;;;;4.05;3.05;;;;;;;27.02;40.80;94297.28;4999349;28;20022;-71
2021/05/17 05:31:24;;;;;;;4.22;2.88;;;;;;;27.30;42.43;94338.19;4968089;28;20033;-72
2021/05/17 05:33:50;;;;;;;4.38;2.50;;;;;;;27.10;41.71;94292.53;4946900;28;20458;-70
2021/05/17 05:36:15;;;;;;;4.28;3.05;;;;;;;27.39;41.64;94334.88;4982577;28;20026;-72
2021/05/17 05:38:40;;;;;;;4.75;2.92;;;;;;;27.47;41.78;94325.38;4961363;28;20038;-72
2021/05/17 05:41:06;;;;;;;3.80;2.45;;;;;;;27.48;44.31;94320.59;4956462;28;20034;-70
2021/05/17 05:43:31;;;;;;;4.00;2.80;;;;;;;27.55;41.63;94325.34;4976817;28;20018;-71
2021/05/17 05:45:57;;;;;;;4.28;2.70;;;;;;;27.30;42.79;94306.00;4980427;28;20018;-73
2021/05/17 05:48:22;;;;;;;3.70;2.67;;;;;;;27.48;42.51;94326.09;4961814;28;20026;-72
2021/05/17 05:50:48;;;;;;;4.78;3.05;;;;;;;27.45;42.92;94327.91;4946359;28;20469;-72
2021/05/17 05:53:14;;;;;;;6.32;3.50;;;;;;;27.48;42.49;94313.09;4946072;28;20043;-70
2021/05/17 05:55:40;;;;;;;4.07;2.97;;;;;;;27.46;42.18;94312.94;4959432;28;20038;-71
2021/05/17 05:58:06;;;;;;;5.57;3.55;;;;;;;27.52;42.69;94313.50;4959339;28;20164;-70
2021/05/17 06:00:32;;;;;;;4.90;3.15;;;;;;;27.54;42.71;94308.19;4965077;28;20114;-71
2021/05/17 06:02:58;;;;;;;6.10;3.40;;;;;;;27.52;41.15;94307.25;4945949;28;20102;-73
2021/05/17 06:05:23;;;;;;;6.03;3.67;;;;;;;27.37;41.05;94288.81;4946875;28;20046;-72
2021/05/17 06:07:49;;;;;;;4.85;3.15;;;;;;;27.51;42.94;94297.59;4929719;28;20033;-73
2021/05/17 06:10:15;;;;;;;7.07;3.90;;;;;;;27.51;41.09;94297.59;4884495;28;20099;-72
2021/05/17 06:12:40;;;;;;;6.25;4.20;;;;;;;27.32;41.14;94292.50;4954436;28;20026;-73
2021/05/17 06:15:07;;;;;;;13.75;7.68;;;;;;;27.05;40.67;94263.31;4953255;28;20118;-72
2021/05/17 06:17:33;;;;;;;11.63;5.43;;;;;;;26.96;42.14;94255.63;4948803;28;20791;-72
2021/05/17 06:19:59;;;;;;;8.65;5.80;;;;;;;27.04;41.13;94283.78;4948755;28;20031;-71
2021/05/17 06:22:26;;;;;;;8.10;5.70;;;;;;;26.86;41.10;94262.94;4964423;28;20057;-73
2021/05/17 06:24:53;;;;;;;8.30;5.55;;;;;;;27.03;41.79;94279.56;4950765;28;20023;-72
2021/05/17 06:27:18;;;;;;;9.00;5.22;;;;;;;27.00;41.57;94283.41;4959987;28;20565;-71
2021/05/17 06:29:45;;;;;;;9.00;5.40;;;;;;;26.94;42.38;94296.56;4969182;28;20049;-70
2021/05/17 06:32:11;;;;;;;8.93;5.22;;;;;;;26.89;42.23;94300.25;4969652;28;20110;-71
2021/05/17 06:34:38;;;;;;;9.70;5.57;;;;;;;26.80;42.68;94298.03;4968414;28;20499;-71
2021/05/17 06:37:03;;;;;;;9.63;5.45;;;;;;;26.75;43.05;94294.75;4970962;28;20031;-72
2021/05/17 06:39:29;;;;;;;8.23;5.20;;;;;;;26.70;43.06;94293.66;4969698;28;20541;-72
2021/05/17 06:41:54;;;;;;;6.50;5.35;;;;;;;26.66;43.33;94281.59;4968406;28;20486;-72
2021/05/17 06:44:20;;;;;;;7.90;5.30;;;;;;;26.57;42.82;94284.88;4965868;28;20030;-71
2021/05/17 06:46:45;;;;;;;6.70;4.65;;;;;;;26.54;42.94;94269.53;4961519;28;20054;-72
2021/05/17 06:49:11;;;;;;;9.85;5.53;;;;;;;26.51;42.81;94270.63;4949306;28;20482;-72
2021/05/17 06:51:36;;;;;;;9.07;5.25;;;;;;;26.47;43.17;94260.06;4967473;28;20026;-72
2021/05/17 06:54:03;;;;;;;9.13;4.97;;;;;;;26.15;43.01;94218.03;4967044;28;20023;-72
2021/05/17 06:56:39;;;;;;;7.50;5.38;;;;;;;26.18;42.68;94233.34;4963934;28;20035;-72
2021/05/17 06:59:11;;;;;;;10.20;5.35;;;;;;;26.27;42.95;94257.44;4966190;28;20038;-72
2021/05/17 07:01:36;;;;;;;7.93;5.35;;;;;;;26.24;42.67;94253.06;4968911;28;20122;-72
2021/05/17 07:04:02;;;;;;;8.05;5.80;;;;;;;26.13;43.11;94245.22;4969034;28;20632;-73
2021/05/17 07:06:29;;;;;;;8.30;5.30;;;;;;;26.01;43.06;94235.91;4969166;28;20023;-72
2021/05/17 07:12:03;;;;;;;9.18;6.03;;;;;;;26.12;42.74;94254.69;4956061;28;20061;-71
2021/05/17 07:14:28;;;;;;;7.47;5.32;;;;;;;26.07;43.72;94261.09;4955664;28;20542;-71
2021/05/17 07:16:53;;;;;;;7.65;4.72;;;;;;;26.03;43.97;94260.69;4937717;28;20082;-71
2021/05/17 07:19:19;;;;;;;7.90;4.95;;;;;;;25.85;43.89;94250.09;4953579;28;20035;-71
2021/05/17 07:24:28;;;;;;;7.13;4.80;;;;;;;25.79;43.93;94229.66;4943366;28;20118;-72
2021/05/17 07:26:54;;;;;;;7.10;4.95;;;;;;;26.00;44.59;94261.06;4954098;28;20027;-71
2021/05/17 07:29:20;;;;;;;8.50;5.20;;;;;;;25.98;44.93;94264.34;4971657;28;20077;-73
2021/05/17 07:31:46;;;;;;;6.40;4.63;;;;;;;25.93;45.09;94273.47;4954114;28;20061;-72
2021/05/17 07:34:12;;;;;;;6.05;4.55;;;;;;;25.94;43.27;94263.97;4954371;28;20026;-71
2021/05/17 07:36:37;;;;;;;9.23;5.97;;;;;;;25.89;44.56;94255.94;4971571;28;20466;-75
2021/05/17 07:39:04;;;;;;;6.57;4.75;;;;;;;25.83;45.61;94269.78;4971470;28;20494;-72
2021/05/17 07:41:29;;;;;;;6.13;4.90;;;;;;;25.88;44.00;94260.66;4953799;28;20038;-75
2021/05/17 07:43:55;;;;;;;6.93;4.72;;;;;;;25.91;45.10;94251.38;4970470;28;20418;-72
2021/05/17 07:46:20;;;;;;;7.25;4.45;;;;;;;25.65;46.21;94236.53;4954235;28;20497;-73
2021/05/17 07:51:30;;;;;;;7.63;4.88;;;;;;;25.74;44.11;94236.00;4949922;28;20470;-72
2021/05/17 07:53:55;;;;;;;7.47;5.78;;;;;;;25.49;43.84;94202.19;4967908;28;20030;-74
2021/05/17 07:56:22;;;;;;;6.95;5.35;;;;;;;25.61;44.37;94230.66;4952337;28;20018;-74
2021/05/17 07:58:49;;;;;;;7.40;5.55;;;;;;;25.63;43.91;94222.66;4938090;28;20046;-74
2021/05/17 08:01:14;;;;;;;8.57;5.90;;;;;;;25.59;44.19;94227.72;4969466;28;20031;-74
2021/05/17 08:03:40;;;;;;;9.02;5.82;;;;;;;25.57;43.91;94230.28;4966462;28;20051;-73
2021/05/17 08:06:07;;;;;;;7.05;5.25;;;;;;;25.57;44.31;94236.47;4953308;28;20023;-73
2021/05/17 08:08:32;;;;;;;8.88;5.57;;;;;;;25.56;44.50;94239.75;4951338;29;20031;-73
2021/05/17 08:10:59;;;;;;;9.43;6.90;;;;;;;25.54;43.70;94242.31;4948842;28;20023;-73
2021/05/17 08:13:25;;;;;;;8.95;6.65;;;;;;;25.54;44.03;94242.31;4941715;28;20120;-73
2021/05/17 08:15:50;;;;;;;8.05;6.10;;;;;;;25.54;44.43;94236.84;4930909;29;20023;-73
2021/05/17 08:18:16;;;;;;;7.82;5.53;;;;;;;25.52;44.36;94239.38;4931221;29;20035;-73
2021/05/17 08:20:41;;;;;;;8.57;6.15;;;;;;;25.50;43.97;94233.72;4931920;28;20026;-73
2021/05/17 08:23:10;;;;;;;8.98;6.10;;;;;;;25.57;44.33;94235.75;4949901;28;20027;-74
2021/05/17 08:25:36;;;;;;;9.43;5.83;;;;;;;25.54;44.15;94232.09;4946217;28;20038;-74
2021/05/17 08:28:01;;;;;;;8.80;6.05;;;;;;;25.51;43.91;94248.84;4949043;29;20023;-73
2021/05/17 08:30:27;;;;;;;9.88;5.85;;;;;;;25.49;43.72;94256.88;4948811;29;20031;-74
2021/05/17 08:32:52;;;;;;;8.85;5.97;;;;;;;25.48;44.47;94250.66;4949834;28;20489;-74
2021/05/17 08:35:18;;;;;;;8.82;5.90;;;;;;;25.45;44.95;94256.47;4949819;29;20038;-74
2021/05/17 08:37:43;;;;;;;7.78;5.72;;;;;;;25.46;44.56;94255.22;4949809;28;20423;-74
2021/05/17 08:40:09;;;;;;;9.45;6.20;;;;;;;25.44;44.02;94265.94;4942350;29;20031;-73
2021/05/17 08:42:35;;;;;;;10.15;5.88;;;;;;;25.42;44.68;94246.63;4938309;28;20066;-73
2021/05/17 08:45:01;;;;;;;9.57;5.45;;;;;;;25.42;44.42;94252.09;4944344;29;20031;-73
2021/05/17 08:47:27;;;;;;;8.88;5.82;;;;;;;25.40;44.88;94249.19;4934208;28;20534;-73
2021/05/17 08:49:52;;;;;;;8.07;5.82;;;;;;;25.40;44.22;94243.72;4947417;29;20035;-73
2021/05/17 08:52:18;;;;;;;11.30;6.20;;;;;;;25.41;44.72;94250.63;4948157;29;20542;-74
2021/05/17 08:54:43;;;;;;;10.98;6.05;;;;;;;25.19;44.72;94218.47;4947974;29;20490;-73
2021/05/17 08:57:09;;;;;;;8.52;5.40;;;;;;;25.20;44.58;94236.34;4932202;29;20039;-74
2021/05/17 08:59:34;;;;;;;9.20;5.57;;;;;;;25.37;44.88;94239.34;4949213;28;20039;-71
2021/05/17 09:02:00;;;;;;;10.30;5.93;;;;;;;25.41;44.95;94250.63;4948614;28;20035;-69
2021/05/17 09:04:26;;;;;;;9.90;5.60;;;;;;;25.28;44.68;94220.72;4975932;28;20047;-70
2021/05/17 09:06:56;;;;;;;6.47;5.20;;;;;;;25.41;44.15;94245.91;4962170;28;20557;-76
2021/05/17 09:09:31;;;;;;;11.98;5.70;;;;;;;25.45;44.32;94242.81;4976409;28;20093;-72
2021/05/17 09:12:01;;;;;;;7.10;4.75;;;;;;;25.39;44.50;94237.50;4969738;28;20041;-72
2021/05/17 09:14:27;;;;;;;7.88;5.53;;;;;;;25.42;44.24;94236.41;4952767;28;20027;-70
2021/05/17 09:16:53;;;;;;;8.43;5.07;;;;;;;25.44;44.81;94225.69;4948690;28;20794;-72
2021/05/17 09:19:19;;;;;;;8.75;5.32;;;;;;;25.54;45.14;94228.63;4932941;29;20050;-70
2021/05/17 09:22:13;;;;;;;8.77;5.00;;;;;;;25.45;45.44;94223.69;4951257;28;20031;-72
2021/05/17 09:24:54;;;;;;;10.07;6.38;;;;;;;25.59;45.43;94238.66;4948683;29;20035;-73
2021/05/17 09:27:21;;;;;;;10.18;6.53;;;;;;;25.52;45.50;94229.19;4932525;29;20023;-73
2021/05/17 09:29:48;;;;;;;10.10;6.97;;;;;;;25.62;45.90;94232.13;4948722;28;20180;-73
2021/05/17 09:32:28;;;;;;;10.48;7.13;;;;;;;25.57;45.97;94209.13;4950566;28;20034;-74
2021/05/17 09:34:58;;;;;;;12.00;8.00;;;;;;;25.52;45.32;94212.78;4942101;29;20163;-74
2021/05/17 09:37:23;;;;;;;11.57;7.82;;;;;;;25.53;44.60;94216.22;4948363;28;20514;-73
2021/05/17 09:39:50;;;;;;;17.23;8.75;;;;;;;25.53;45.69;94208.78;4946971;29;20094;-73
2021/05/17 09:42:18;;;;;;;11.05;7.20;;;;;;;25.55;45.25;94210.97;4948904;29;20050;-72
2021/05/17 09:44:45;;;;;;;10.43;6.43;;;;;;;25.64;44.48;94207.72;4941182;28;20030;-72
2021/05/17 09:47:20;;;;;;;9.18;5.95;;;;;;;25.82;44.87;94207.41;4956990;28;20054;-72
2021/05/17 09:49:52;;;;;;;7.25;5.53;;;;;;;25.78;44.86;94189.88;4976322;28;20046;-72
2021/05/17 09:52:24;;;;;;;9.60;5.55;;;;;;;25.83;45.42;94182.25;4959064;28;20038;-73
2021/05/17 09:54:56;;;;;;;7.07;4.25;;;;;;;25.95;44.11;94177.88;4977402;28;20027;-73
2021/05/17 09:57:38;;;;;;;8.20;4.30;;;;;;;25.98;44.48;94171.31;4975235;28;20022;-72
2021/05/17 10:00:15;;;;;;;6.40;3.42;;;;;;;26.09;43.98;94175.69;4975483;28;20247;-72
2021/05/17 10:02:47;;;;;;;4.50;2.90;;;;;;;26.30;43.94;94174.25;4964128;28;20059;-74
2021/05/17 10:05:17;;;;;;;5.75;3.47;;;;;;;26.27;43.45;94180.81;4965606;28;20031;-73
2021/05/17 10:07:43;;;;;;;5.68;2.67;;;;;;;26.41;43.11;94173.88;4969909;28;20027;-72
2021/05/17 10:10:09;;;;;;;5.75;2.83;;;;;;;26.31;43.57;94170.25;4969449;28;20506;-72
2021/05/17 10:12:34;;;;;;;4.63;2.60;;;;;;;26.36;42.47;94163.84;4969889;28;20042;-74
2021/05/17 10:15:01;;;;;;;4.30;2.47;;;;;;;26.30;43.62;94166.03;4977024;28;20446;-72
2021/05/17 10:17:26;;;;;;;5.45;2.55;;;;;;;26.34;42.89;94174.63;4983522;28;20084;-73
2021/05/17 10:19:52;;;;;;;5.03;2.40;;;;;;;26.47;42.58;94160.72;4979487;28;20019;-72
2021/05/17 10:22:17;;;;;;;4.25;2.17;;;;;;;26.58;42.34;94171.31;4980399;28;20077;-74
2021/05/17 10:24:43;;;;;;;4.43;2.30;;;;;;;26.56;41.90;94180.09;4955826;28;20101;-73
2021/05/17 10:27:08;;;;;;;6.03;4.40;;;;;;;26.58;42.93;94187.75;4973555;28;20449;-73
2021/05/17 10:29:36;;;;;;;5.05;3.00;;;;;;;26.42;42.85;94181.53;4957422;28;20042;-71
2021/05/17 10:32:01;;;;;;;7.47;3.15;;;;;;;26.49;42.42;94174.63;4932652;28;20051;-71
2021/05/17 10:34:27;;;;;;;6.82;2.90;;;;;;;26.49;42.31;94164.38;4970824;28;20125;-71
2021/05/17 10:36:59;;;;;;;5.28;2.70;;;;;;;26.65;42.80;94179.53;4969866;28;20536;-71
2021/05/17 10:39:33;;;;;;;4.57;2.58;;;;;;;26.71;42.39;94168.34;4971104;28;20026;-71
2021/05/17 10:42:11;;;;;;;7.38;2.88;;;;;;;26.71;42.20;94168.34;4950507;29;20119;-71
2021/05/17 10:47:49;;;;;;;5.07;2.50;;;;;;;26.72;42.38;94172.56;4970805;28;20061;-71
2021/05/17 10:50:18;;;;;;;5.15;2.65;;;;;;;26.73;42.71;94176.78;4970539;28;20034;-70
2021/05/17 10:52:44;;;;;;;3.42;2.50;;;;;;;26.56;42.71;94151.94;4970822;28;20589;-71
2021/05/17 10:55:12;;;;;;;4.25;2.63;;;;;;;26.65;42.82;94173.31;4971075;28;20111;-71
2021/05/17 10:57:57;;;;;;;4.60;2.88;;;;;;;26.63;42.70;94173.13;4970301;28;20125;-71
2021/05/17 11:00:23;;;;;;;4.82;2.78;;;;;;;26.53;42.41;94169.47;4935605;29;20814;-71
2021/05/17 11:03:09;;;;;;;6.22;2.80;;;;;;;26.54;43.00;94170.94;4944278;29;20060;-70
2021/05/17 11:05:35;;;;;;;4.35;2.88;;;;;;;26.39;42.79;94160.75;4956277;28;20041;-70
2021/05/17 11:08:07;;;;;;;4.90;2.70;;;;;;;26.42;42.89;94169.88;4950496;28;20023;-71
2021/05/17 11:10:52;;;;;;;4.25;2.67;;;;;;;26.19;43.30;94147.25;4950650;29;20038;-71
2021/05/17 11:13:22;;;;;;;5.38;2.78;;;;;;;26.09;42.83;94143.59;4937822;28;20046;-70
2021/05/17 11:15:48;;;;;;;4.80;2.78;;;;;;;26.10;43.14;94158.72;4950666;29;20027;-72
2021/05/17 11:18:14;;;;;;;4.20;2.90;;;;;;;26.21;43.53;94177.53;4945414;28;20043;-70
2021/05/17 11:23:11;;;;;;;7.28;3.30;;;;;;;26.14;43.11;94172.75;4966082;28;20104;-70
2021/05/17 11:26:10;;;;;;;5.78;3.05;;;;;;;26.10;43.46;94166.94;4962436;28;20058;-69
2021/05/17 11:28:39;;;;;;;5.53;3.05;;;;;;;26.05;43.16;94181.53;4964899;28;20038;-71
2021/05/17 11:31:13;;;;;;;5.63;3.20;;;;;;;25.98;44.00;94165.84;4965987;28;20034;-71
2021/05/17 11:34:03;;;;;;;5.53;3.30;;;;;;;25.92;43.19;94162.56;4971399;28;20502;-71
2021/05/17 11:36:30;;;;;;;4.20;3.10;;;;;;;25.89;44.02;94171.84;4950684;29;20035;-71
2021/05/17 11:39:11;;;;;;;6.10;3.25;;;;;;;25.87;43.77;94168.94;4965008;28;20046;-71
2021/05/17 11:42:03;;;;;;;5.18;2.95;;;;;;;25.86;44.10;94174.97;4964156;28;20114;-71
2021/05/17 11:44:34;;;;;;;3.50;2.97;;;;;;;25.80;43.75;94183.34;4965777;28;20046;-72
2021/05/17 11:47:21;;;;;;;4.50;2.92;;;;;;;25.78;44.48;94178.94;4969926;28;20030;-71
2021/05/17 11:49:47;;;;;;;5.45;2.88;;;;;;;25.81;44.96;94190.28;4958138;28;20039;-72
2021/05/17 11:52:14;;;;;;;5.20;2.95;;;;;;;25.76;44.96;94181.50;4971688;28;20147;-72
2021/05/17 11:54:41;;;;;;;4.40;2.95;;;;;;;25.73;44.99;94179.88;4961801;28;20042;-73
2021/05/17 11:57:07;;;;;;;4.55;3.08;;;;;;;25.69;45.34;94177.47;4970707;28;20090;-70
2021/05/17 11:59:33;;;;;;;4.05;2.70;;;;;;;25.65;45.80;94170.91;4971319;28;20453;-71
2021/05/17 12:02:03;;;;;;;4.43;3.17;;;;;;;25.63;45.05;94168.69;4971091;28;20038;-71
2021/05/17 12:04:33;;;;;;;4.35;2.90;;;;;;;25.60;45.19;94163.56;4970829;28;20054;-70
2021/05/17 12:07:19;;;;;;;5.43;3.47;;;;;;;25.57;45.00;94164.66;4953598;28;20025;-71